Time;durP1;ratioP1;P1;durP2;ratioP2;P2;SDS_P1;SDS_P2;PMS_P1;PMS_P2;Temp;Humidity;BMP_temperature;BMP_pressure;BME280_temperature;BME280_humidity;BME280_pressure;Samples;Min_cycle;Max_cycle;Signal;HPM_P1;HPM_P2
2023/06/19 18:24:20;;;;;;;95.43;11.05;;;;;;;;;;5035593;28;20768;-55
2023/06/19 18:26:45;;;;;;;93.53;11.90;;;;;;;;;;5018004;28;20530;-57
2023/06/19 18:29:10;;;;;;;50.55;7.88;;;;;;;;;;5011106;28;20026;-56
2023/06/19 18:31:36;;;;;;;105.50;12.77;;;;;;;;;;5020256;28;20099;-57
2023/06/19 18:34:01;;;;;;;53.05;7.70;;;;;;;;;;5029927;28;20263;-57
2023/06/19 18:36:26;;;;;;;67.57;8.97;;;;;;;;;;5028530;28;20037;-58
2023/06/19 18:38:52;;;;;;;53.03;8.23;;;;;;;;;;5027649;28;20455;-57
2023/06/19 18:41:17;;;;;;;45.78;7.97;;;;;;;;;;5027681;28;20037;-56
2023/06/19 18:43:42;;;;;;;70.43;10.57;;;;;;;;;;5028139;28;20568;-56
2023/06/19 18:46:08;;;;;;;55.30;9.13;;;;;;;;;;5028356;28;20532;-54
2023/06/19 18:48:33;;;;;;;44.53;7.43;;;;;;;;;;5028007;28;20386;-55
2023/06/19 18:50:58;;;;;;;40.17;7.13;;;;;;;;;;5027673;28;20856;-55
2023/06/19 18:53:23;;;;;;;52.47;8.37;;;;;;;;;;5028801;28;20306;-55
2023/06/19 18:55:50;;;;;;;78.35;10.88;;;;;;;;;;5026355;28;20041;-55
2023/06/19 18:58:18;;;;;;;41.15;7.68;;;;;;;;;;5029614;28;20017;-58
2023/06/19 19:00:43;;;;;;;68.47;9.75;;;;;;;;;;5025537;28;20492;-55
2023/06/19 19:03:09;;;;;;;41.83;7.20;;;;;;;;;;5029773;28;20037;-55
2023/06/19 19:05:35;;;;;;;55.53;8.43;;;;;;;;;;5024904;28;20294;-55
2023/06/19 19:08:00;;;;;;;50.67;8.55;;;;;;;;;;5028391;28;20259;-57
2023/06/19 19:10:26;;;;;;;48.20;9.00;;;;;;;;;;5028806;28;20029;-57
2023/06/19 19:12:51;;;;;;;40.37;7.67;;;;;;;;;;5027936;28;20483;-57
2023/06/19 19:15:16;;;;;;;43.17;7.90;;;;;;;;;;5028489;28;20152;-55
2023/06/19 19:17:41;;;;;;;79.10;11.48;;;;;;;;;;5025948;28;20056;-58
2023/06/19 19:20:08;;;;;;;41.47;7.27;;;;;;;;;;5028153;28;20029;-55
2023/06/19 19:22:34;;;;;;;55.30;8.82;;;;;;;;;;5026554;28;20053;-56
2023/06/19 19:24:59;;;;;;;50.55;8.45;;;;;;;;;;5027911;28;20029;-54
2023/06/19 19:27:25;;;;;;;47.67;8.13;;;;;;;;;;5028001;28;20297;-54
2023/06/19 19:29:50;;;;;;;85.43;11.75;;;;;;;;;;5027438;28;20023;-57
2023/06/19 19:32:15;;;;;;;46.22;8.13;;;;;;;;;;5028711;28;20034;-57
2023/06/19 19:34:40;;;;;;;85.73;12.00;;;;;;;;;;5018632;28;20052;-54
2023/06/19 19:37:06;;;;;;;51.43;8.73;;;;;;;;;;5014579;28;20517;-56
2023/06/19 19:39:32;;;;;;;49.87;8.40;;;;;;;;;;5014043;28;20267;-53
2023/06/19 19:41:58;;;;;;;50.22;8.25;;;;;;;;;;5013084;28;21108;-56
2023/06/19 19:44:23;;;;;;;50.15;8.40;;;;;;;;;;5015532;28;20175;-56
2023/06/19 19:46:48;;;;;;;79.07;11.40;;;;;;;;;;5013226;28;20030;-56
2023/06/19 19:49:13;;;;;;;41.10;7.82;;;;;;;;;;5016480;28;20126;-55
2023/06/19 19:51:39;;;;;;;53.93;9.10;;;;;;;;;;5013432;28;20048;-54
2023/06/19 19:54:04;;;;;;;24.20;6.07;;;;;;;;;;5017888;28;20298;-53
2023/06/19 20:12:18;;;;;;;72.72;10.20;;;;;;;;;;4980587;28;20982;-56
2023/06/19 20:14:43;;;;;;;72.93;10.70;;;;;;;;;;4979434;28;20034;-57
2023/06/19 20:17:09;;;;;;;50.43;8.17;;;;;;;;;;4995650;28;20364;-58
2023/06/19 20:19:35;;;;;;;52.95;8.75;;;;;;;;;;4998550;28;20173;-59
2023/06/19 20:22:00;;;;;;;43.37;7.80;;;;;;;;;;4998250;28;20026;-59
2023/06/19 20:24:25;;;;;;;38.37;7.60;;;;;;;;;;5000359;28;20344;-58
2023/06/19 20:26:50;;;;;;;88.60;12.70;;;;;;;;;;4996656;28;20101;-60
2023/06/19 20:29:15;;;;;;;58.07;8.20;;;;;;;;;;5000523;28;20030;-60
2023/06/19 20:31:41;;;;;;;104.73;12.43;;;;;;;;;;4996978;28;20339;-59
2023/06/19 20:34:06;;;;;;;79.93;9.77;;;;;;;;;;4999362;28;20131;-60
2023/06/19 20:36:31;;;;;;;64.70;8.87;;;;;;;;;;4998905;28;20029;-57
2023/06/19 20:38:57;;;;;;;51.75;7.78;;;;;;;;;;4997554;28;20303;-58
2023/06/19 20:41:23;;;;;;;78.82;10.15;;;;;;;;;;4997769;28;20033;-56
2023/06/19 20:43:49;;;;;;;86.53;10.95;;;;;;;;;;4997282;28;20025;-56
2023/06/19 20:46:14;;;;;;;51.72;7.72;;;;;;;;;;4997436;28;20557;-56
2023/06/19 20:48:45;;;;;;;74.30;9.40;;;;;;;;;;4999066;28;20026;-59
2023/06/19 20:51:10;;;;;;;59.60;8.75;;;;;;;;;;4996928;28;20053;-59
2023/06/19 20:53:36;;;;;;;67.20;8.93;;;;;;;;;;4999079;28;20030;-59
2023/06/19 20:56:01;;;;;;;95.03;10.93;;;;;;;;;;4994310;28;20285;-57
2023/06/19 20:58:27;;;;;;;58.70;8.38;;;;;;;;;;4998392;28;20499;-60
2023/06/19 21:00:55;;;;;;;96.57;11.43;;;;;;;;;;4997372;28;20491;-58
2023/06/19 21:03:20;;;;;;;59.65;8.57;;;;;;;;;;5005160;28;20595;-60
2023/06/19 21:05:46;;;;;;;96.78;11.88;;;;;;;;;;4996943;28;20201;-58
2023/06/19 21:08:11;;;;;;;58.30;8.68;;;;;;;;;;4997927;28;20132;-55
2023/06/19 21:10:37;;;;;;;55.63;8.50;;;;;;;;;;4998062;28;20454;-56
2023/06/19 21:13:02;;;;;;;63.97;9.15;;;;;;;;;;4997957;28;20765;-57
2023/06/19 21:15:27;;;;;;;58.63;8.67;;;;;;;;;;4996375;28;20038;-59
2023/06/19 21:17:52;;;;;;;101.45;12.75;;;;;;;;;;4998067;28;20026;-60
2023/06/19 21:20:17;;;;;;;58.57;8.27;;;;;;;;;;4999757;28;20182;-60
2023/06/19 21:22:43;;;;;;;80.53;10.83;;;;;;;;;;4989863;28;20018;-60
2023/06/19 21:25:08;;;;;;;78.97;9.77;;;;;;;;;;4986859;28;20022;-58
2023/06/19 21:27:33;;;;;;;62.03;8.93;;;;;;;;;;4984932;28;20254;-59
2023/06/19 21:29:59;;;;;;;57.55;8.70;;;;;;;;;;4984666;28;20029;-57
2023/06/19 21:32:24;;;;;;;70.57;9.73;;;;;;;;;;4985381;28;20041;-57
2023/06/19 21:34:49;;;;;;;106.00;12.85;;;;;;;;;;4983702;28;20068;-59
2023/06/19 21:37:15;;;;;;;58.65;8.75;;;;;;;;;;4986677;28;20027;-59
2023/06/19 21:39:40;;;;;;;64.57;8.93;;;;;;;;;;4984789;28;20026;-57
2023/06/19 21:42:05;;;;;;;59.85;8.55;;;;;;;;;;4984313;28;20096;-58
2023/06/19 21:44:31;;;;;;;57.42;8.60;;;;;;;;;;4984808;28;20022;-59
2023/06/19 21:46:56;;;;;;;117.17;13.47;;;;;;;;;;4982950;28;20057;-60
2023/06/19 21:49:22;;;;;;;76.37;9.63;;;;;;;;;;4985995;28;20029;-57
2023/06/19 21:51:47;;;;;;;114.07;13.07;;;;;;;;;;4982956;28;20646;-57
2023/06/19 21:54:12;;;;;;;94.15;11.18;;;;;;;;;;4985153;28;20252;-56
2023/06/19 21:56:37;;;;;;;65.80;8.90;;;;;;;;;;4983333;28;20069;-59
2023/06/19 21:59:03;;;;;;;59.70;8.80;;;;;;;;;;4985326;28;20023;-60
2023/06/19 22:01:28;;;;;;;73.30;9.43;;;;;;;;;;4983733;28;20880;-57
2023/06/19 22:03:54;;;;;;;108.10;12.30;;;;;;;;;;4983832;28;20281;-57
2023/06/19 22:06:19;;;;;;;61.72;8.95;;;;;;;;;;4983855;28;20280;-56
2023/06/19 22:08:44;;;;;;;80.27;10.17;;;;;;;;;;4983031;28;20218;-57
2023/06/19 22:11:10;;;;;;;59.45;8.77;;;;;;;;;;4983023;28;20815;-58
2023/06/19 22:13:35;;;;;;;60.10;8.80;;;;;;;;;;4984038;28;20045;-58
2023/06/19 22:16:00;;;;;;;147.90;15.20;;;;;;;;;;4981872;28;20073;-59
2023/06/19 22:18:25;;;;;;;58.57;8.70;;;;;;;;;;4984271;28;20273;-57
2023/06/19 22:20:51;;;;;;;85.10;10.37;;;;;;;;;;4984410;28;20815;-57
2023/06/19 22:23:16;;;;;;;68.93;9.63;;;;;;;;;;4984920;28;20281;-57
2023/06/19 22:25:41;;;;;;;60.88;8.90;;;;;;;;;;4983515;28;20070;-58
2023/06/19 22:28:07;;;;;;;48.93;7.87;;;;;;;;;;4982782;28;20030;-57
2023/06/19 22:30:32;;;;;;;75.73;10.13;;;;;;;;;;4982711;28;20327;-57
2023/06/19 22:32:57;;;;;;;90.43;11.67;;;;;;;;;;4983636;28;20261;-57
2023/06/19 22:35:23;;;;;;;58.10;9.23;;;;;;;;;;4979081;28;20702;-58
2023/06/19 22:37:48;;;;;;;109.05;13.02;;;;;;;;;;4979646;28;20088;-57
